Time;durP1;ratioP1;P1;durP2;ratioP2;P2;SDS_P1;SDS_P2;PMS_P1;PMS_P2;Temp;Humidity;BMP_temperature;BMP_pressure;BME280_temperature;BME280_humidity;BME280_pressure;Samples;Min_cycle;Max_cycle;Signal;HPM_P1;HPM_P2
2021/07/04 00:01:58;;;;;;;9.63;6.50;;;;;;;16.33;100.00;96041.56;5023902;28;20030;-78
2021/07/04 00:04:24;;;;;;;11.57;6.90;;;;;;;16.30;100.00;96036.63;5007540;28;20048;-78
2021/07/04 00:06:50;;;;;;;8.63;6.33;;;;;;;16.19;100.00;96030.06;4994528;28;20116;-80
2021/07/04 00:09:16;;;;;;;10.33;8.50;;;;;;;16.20;100.00;96037.84;4995037;28;20026;-80
2021/07/04 00:11:43;;;;;;;10.00;7.17;;;;;;;16.35;100.00;96034.22;5030681;28;20029;-79
2021/07/04 00:14:09;;;;;;;9.83;7.27;;;;;;;16.27;100.00;96037.88;5008818;28;20037;-80
2021/07/04 00:16:35;;;;;;;8.23;5.78;;;;;;;16.31;100.00;96033.81;5013496;28;20023;-80
2021/07/04 00:19:01;;;;;;;9.20;6.50;;;;;;;16.33;100.00;96036.25;5010707;28;20034;-79
2021/07/04 00:21:27;;;;;;;7.72;6.15;;;;;;;16.29;100.00;96029.69;5013579;28;20030;-80
2021/07/04 00:23:52;;;;;;;8.82;6.63;;;;;;;16.23;100.00;96028.66;5016614;28;20026;-80
2021/07/04 00:26:19;;;;;;;8.80;6.53;;;;;;;16.10;100.00;96021.50;5029415;28;20058;-80
2021/07/04 00:28:46;;;;;;;9.15;6.07;;;;;;;16.07;100.00;96021.88;5015673;28;20034;-79
2021/07/04 00:31:12;;;;;;;7.50;5.80;;;;;;;16.06;100.00;96020.22;5026422;28;20064;-80
2021/07/04 00:33:38;;;;;;;9.23;6.23;;;;;;;16.02;100.00;96009.19;5012623;28;20030;-80
2021/07/04 00:36:06;;;;;;;8.43;5.63;;;;;;;15.97;100.00;96010.84;5009042;28;20034;-79
2021/07/04 00:38:31;;;;;;;7.23;5.87;;;;;;;15.82;100.00;96018.09;5013780;28;20060;-79
2021/07/04 00:40:58;;;;;;;9.40;5.67;;;;;;;15.77;100.00;96008.09;4996345;28;20444;-79
2021/07/04 00:43:24;;;;;;;8.50;6.53;;;;;;;15.73;100.00;95999.72;5014542;28;20033;-79
2021/07/04 00:45:51;;;;;;;8.57;6.37;;;;;;;15.71;100.00;96006.22;5001641;28;20022;-80
2021/07/04 00:48:17;;;;;;;8.63;6.73;;;;;;;15.62;100.00;95997.56;5022234;28;20068;-80
2021/07/04 00:50:45;;;;;;;10.43;7.37;;;;;;;15.57;100.00;95995.53;5014478;28;20033;-79
2021/07/04 00:53:14;;;;;;;8.23;5.83;;;;;;;15.71;100.00;96000.94;5024338;28;20030;-79
2021/07/04 00:55:41;;;;;;;9.53;6.63;;;;;;;15.73;100.00;95998.91;5010387;28;20034;-80
2021/07/04 00:58:14;;;;;;;9.30;6.50;;;;;;;15.71;100.00;95991.13;5016747;28;20078;-78
2021/07/04 01:00:42;;;;;;;10.13;7.33;;;;;;;15.69;100.00;95997.66;4994733;28;20049;-78
2021/07/04 01:03:09;;;;;;;11.10;7.67;;;;;;;15.59;100.00;95986.56;5010641;28;20113;-79
2021/07/04 01:05:44;;;;;;;10.20;6.93;;;;;;;15.60;100.00;95991.69;5014091;28;20129;-80
2021/07/04 01:08:13;;;;;;;9.90;6.87;;;;;;;15.69;100.00;95987.88;5014970;28;20068;-79
2021/07/04 01:10:39;;;;;;;10.03;6.93;;;;;;;15.76;100.00;95983.44;5011829;28;20057;-81
2021/07/04 01:13:12;;;;;;;9.53;6.93;;;;;;;15.79;100.00;95977.72;5017807;28;20036;-79
2021/07/04 01:15:43;;;;;;;8.90;7.13;;;;;;;15.86;100.00;95982.22;4995521;28;20061;-79
2021/07/04 01:18:10;;;;;;;8.97;7.23;;;;;;;15.88;100.00;95985.50;5008762;28;20030;-80
2021/07/04 01:20:42;;;;;;;8.52;6.30;;;;;;;15.91;100.00;95988.56;5011584;28;20022;-80
2021/07/04 01:23:12;;;;;;;9.27;6.60;;;;;;;15.94;100.00;95979.41;5011610;28;20237;-80
2021/07/04 01:25:46;;;;;;;10.50;6.30;;;;;;;15.89;100.00;95982.63;5010855;28;20045;-78
2021/07/04 01:28:14;;;;;;;8.73;6.70;;;;;;;15.88;100.00;95983.66;4995158;28;20068;-79
2021/07/04 01:30:47;;;;;;;9.60;7.45;;;;;;;15.87;100.00;95997.13;4995623;28;20124;-78
2021/07/04 01:33:13;;;;;;;9.70;7.27;;;;;;;15.92;100.00;95992.84;5008233;28;20030;-78
2021/07/04 01:35:39;;;;;;;9.63;6.90;;;;;;;15.86;100.00;95991.00;5012045;28;20033;-79
2021/07/04 01:38:07;;;;;;;11.10;7.20;;;;;;;15.88;100.00;95991.63;5027873;28;20025;-79
2021/07/04 01:40:33;;;;;;;8.70;7.13;;;;;;;15.84;100.00;95994.88;5013392;28;20022;-78
2021/07/04 01:43:01;;;;;;;8.90;6.33;;;;;;;15.88;100.00;95998.75;4997846;28;20041;-78
2021/07/04 01:45:29;;;;;;;9.00;6.40;;;;;;;15.91;100.00;96003.66;4997984;28;20040;-79
2021/07/04 01:47:55;;;;;;;8.40;6.60;;;;;;;15.99;100.00;95998.19;5013233;28;20065;-80
2021/07/04 01:50:28;;;;;;;9.90;7.13;;;;;;;15.99;100.00;95998.19;5001218;28;20034;-79
2021/07/04 01:52:55;;;;;;;12.47;8.10;;;;;;;16.00;100.00;96005.13;4997565;28;20030;-80
2021/07/04 01:55:23;;;;;;;11.37;7.80;;;;;;;15.94;100.00;95990.00;4999551;28;20495;-80
2021/07/04 01:57:51;;;;;;;10.60;7.23;;;;;;;15.90;100.00;95983.47;5016090;28;20030;-80
2021/07/04 02:00:28;;;;;;;11.35;8.00;;;;;;;15.78;100.00;95978.72;4997204;28;20025;-79
2021/07/04 02:03:11;;;;;;;10.93;6.97;;;;;;;15.75;100.00;95978.31;5014732;28;20072;-79
2021/07/04 02:05:52;;;;;;;11.20;7.20;;;;;;;15.91;100.00;95969.19;4999325;28;20065;-79
2021/07/04 02:08:26;;;;;;;11.63;7.40;;;;;;;15.67;100.00;95974.00;5030401;28;20029;-79
2021/07/04 02:10:58;;;;;;;10.13;6.90;;;;;;;15.62;100.00;95979.03;5030482;28;20727;-79
2021/07/04 02:13:25;;;;;;;9.27;7.20;;;;;;;15.68;100.00;95980.94;5014373;28;20369;-78
2021/07/04 02:15:52;;;;;;;10.57;7.50;;;;;;;15.66;100.00;95977.66;5012990;28;20057;-80
2021/07/04 02:18:31;;;;;;;9.37;6.63;;;;;;;15.70;100.00;95981.56;5029180;28;20025;-80
2021/07/04 02:20:57;;;;;;;11.27;8.20;;;;;;;15.74;100.00;95984.63;5010359;28;20042;-79
2021/07/04 02:23:31;;;;;;;17.37;7.93;;;;;;;15.76;100.00;95980.78;4994481;28;20088;-79
2021/07/04 02:26:04;;;;;;;10.33;7.20;;;;;;;15.77;100.00;95982.41;4987895;28;20519;-79
2021/07/04 02:28:34;;;;;;;11.37;7.93;;;;;;;15.77;100.00;95985.06;5011158;28;20105;-78
2021/07/04 02:31:05;;;;;;;11.40;7.43;;;;;;;15.82;100.00;95978.34;4995908;28;20069;-80
2021/07/04 02:33:32;;;;;;;12.27;8.43;;;;;;;15.88;100.00;95985.50;5004023;28;20030;-79
2021/07/04 02:35:58;;;;;;;9.37;7.10;;;;;;;15.91;100.00;95987.75;4996399;28;20037;-79
2021/07/04 02:38:27;;;;;;;11.37;7.93;;;;;;;15.92;100.00;95981.44;4997675;28;20025;-79
2021/07/04 02:40:54;;;;;;;11.97;8.20;;;;;;;15.93;100.00;95983.91;5013134;28;20026;-78
2021/07/04 02:43:23;;;;;;;10.53;8.40;;;;;;;15.94;100.00;95982.06;4997205;28;20033;-80
2021/07/04 02:45:49;;;;;;;9.83;7.37;;;;;;;15.89;100.00;95985.28;5002613;28;20121;-79
2021/07/04 02:48:18;;;;;;;10.23;7.97;;;;;;;15.84;100.00;95986.91;5029831;28;20026;-78
2021/07/04 02:50:48;;;;;;;10.67;7.97;;;;;;;15.89;100.00;95984.47;5002948;28;20042;-79
2021/07/04 02:53:14;;;;;;;10.23;8.18;;;;;;;15.88;100.00;95991.63;4997301;28;20025;-79
2021/07/04 02:55:44;;;;;;;13.83;9.20;;;;;;;15.83;100.00;95990.56;4996342;28;20033;-80
2021/07/04 02:58:12;;;;;;;9.90;7.97;;;;;;;15.85;100.00;95991.19;4998742;28;20022;-79
2021/07/04 03:00:41;;;;;;;11.67;8.23;;;;;;;15.83;100.00;95983.44;5009995;28;20026;-79
2021/07/04 03:03:08;;;;;;;10.97;8.67;;;;;;;15.84;100.00;95985.06;5010832;28;20030;-79
2021/07/04 03:05:35;;;;;;;12.20;8.30;;;;;;;15.90;100.00;95983.47;4997838;28;20562;-79
2021/07/04 03:08:04;;;;;;;9.67;8.07;;;;;;;15.89;100.00;95985.28;4995532;28;20030;-79
2021/07/04 03:10:30;;;;;;;15.47;9.93;;;;;;;15.79;100.00;95984.84;4994362;28;20035;-83
2021/07/04 03:12:56;;;;;;;12.80;8.90;;;;;;;15.74;100.00;95980.13;5004503;28;20038;-79
2021/07/04 03:15:22;;;;;;;9.83;8.07;;;;;;;15.76;100.00;95988.72;5015252;28;20029;-79
2021/07/04 03:17:48;;;;;;;10.10;7.33;;;;;;;15.69;100.00;95987.88;5019231;28;20026;-80
2021/07/04 03:20:17;;;;;;;10.93;7.93;;;;;;;15.66;100.00;95982.97;4999050;28;20029;-79
2021/07/04 03:22:47;;;;;;;11.60;8.53;;;;;;;15.61;100.00;95974.75;5015539;28;20400;-80
2021/07/04 03:25:16;;;;;;;13.47;8.63;;;;;;;15.72;100.00;95976.84;5008548;28;20026;-80
2021/07/04 03:27:43;;;;;;;11.33;8.23;;;;;;;15.65;100.00;95975.97;4999029;28;20022;-80
2021/07/04 03:30:13;;;;;;;10.57;8.47;;;;;;;15.60;100.00;95972.31;5016029;28;20044;-79
2021/07/04 03:32:39;;;;;;;11.40;8.43;;;;;;;15.53;100.00;95974.94;5015928;28;20042;-79
2021/07/04 03:35:09;;;;;;;11.85;8.45;;;;;;;15.55;100.00;95975.53;5015465;28;20155;-77
2021/07/04 03:37:37;;;;;;;10.17;8.00;;;;;;;15.62;100.00;95976.38;4999669;28;20033;-79
2021/07/04 03:40:09;;;;;;;11.02;8.57;;;;;;;15.55;100.00;95973.69;5014616;28;20509;-80
2021/07/04 03:42:36;;;;;;;10.70;7.63;;;;;;;15.66;100.00;95967.06;5012363;28;20489;-79
2021/07/04 03:45:03;;;;;;;9.50;7.90;;;;;;;15.70;100.00;95978.09;5028383;28;20030;-78
2021/07/04 03:47:29;;;;;;;11.53;7.93;;;;;;;15.70;100.00;95967.50;4999068;28;20040;-79
2021/07/04 03:49:55;;;;;;;10.63;8.07;;;;;;;15.76;100.00;95966.66;5015015;28;20097;-80
2021/07/04 03:52:24;;;;;;;10.27;8.37;;;;;;;15.61;100.00;95961.50;5017318;28;20030;-79
2021/07/04 03:54:50;;;;;;;10.10;8.27;;;;;;;15.66;100.00;95963.53;5035427;28;20030;-80
2021/07/04 03:57:28;;;;;;;10.70;8.43;;;;;;;15.72;100.00;95966.25;5032650;28;20030;-80
2021/07/04 04:00:06;;;;;;;11.83;8.77;;;;;;;15.69;100.00;95958.72;5034819;28;20041;-80
2021/07/04 04:02:42;;;;;;;9.00;7.55;;;;;;;15.63;100.00;95962.13;5028620;28;20049;-79
2021/07/04 04:05:10;;;;;;;11.47;8.93;;;;;;;15.66;100.00;95960.88;5020093;28;20439;-78
2021/07/04 04:07:37;;;;;;;11.02;8.05;;;;;;;15.73;100.00;95962.59;5013616;28;20032;-79
2021/07/04 04:10:07;;;;;;;11.48;7.95;;;;;;;15.78;100.00;95962.81;5018486;28;20400;-78
2021/07/04 04:12:34;;;;;;;11.75;7.78;;;;;;;15.77;100.00;95971.78;5018076;28;20029;-78
2021/07/04 04:15:01;;;;;;;9.60;7.32;;;;;;;15.77;100.00;95969.16;5018318;28;20026;-80
2021/07/04 04:17:28;;;;;;;11.52;8.07;;;;;;;15.59;100.00;95971.47;5017159;28;20029;-80
2021/07/04 04:19:56;;;;;;;10.97;7.73;;;;;;;15.59;100.00;95974.13;5021013;28;20536;-80
2021/07/04 04:22:22;;;;;;;12.70;8.77;;;;;;;15.58;100.00;95972.50;5003950;28;20117;-80
2021/07/04 04:24:49;;;;;;;10.02;8.20;;;;;;;15.52;100.00;95970.63;5023744;28;20970;-80
2021/07/04 04:27:16;;;;;;;13.93;9.55;;;;;;;15.57;100.00;95970.88;5011882;28;20097;-79
2021/07/04 04:29:44;;;;;;;11.40;8.43;;;;;;;15.64;100.00;95971.69;5022816;28;20046;-79
2021/07/04 04:32:12;;;;;;;11.87;8.47;;;;;;;15.71;100.00;95969.13;5023762;28;20028;-79
2021/07/04 04:34:38;;;;;;;12.27;8.53;;;;;;;15.74;100.00;95964.22;5018162;28;20033;-79
2021/07/04 04:37:04;;;;;;;10.73;7.88;;;;;;;15.81;100.00;95968.75;5012107;28;20045;-79
2021/07/04 04:39:32;;;;;;;10.85;7.63;;;;;;;15.86;100.00;95968.94;4995195;28;20032;-80
2021/07/04 04:41:58;;;;;;;12.33;8.13;;;;;;;15.85;100.00;95964.69;5009081;28;20096;-79
2021/07/04 04:44:25;;;;;;;11.82;8.65;;;;;;;15.77;100.00;95958.53;5011671;28;20119;-79
2021/07/04 04:46:50;;;;;;;11.10;8.35;;;;;;;15.78;100.00;95960.16;5028485;28;20029;-78
2021/07/04 04:49:16;;;;;;;10.30;8.02;;;;;;;15.77;100.00;95963.84;5011881;28;20113;-79
2021/07/04 04:51:42;;;;;;;10.27;7.65;;;;;;;15.78;100.00;95957.50;4987864;28;20038;-80
2021/07/04 04:54:08;;;;;;;11.38;7.75;;;;;;;15.82;100.00;95959.78;5012185;28;20100;-79
2021/07/04 04:56:35;;;;;;;10.68;8.02;;;;;;;15.86;100.00;95951.25;4995895;28;20056;-79
2021/07/04 04:59:01;;;;;;;14.03;8.70;;;;;;;15.95;100.00;95949.22;5012041;28;20029;-80
2021/07/04 05:01:28;;;;;;;12.40;9.33;;;;;;;16.08;100.00;95949.25;5011822;28;20034;-78
2021/07/04 05:03:58;;;;;;;11.82;8.70;;;;;;;16.18;100.00;95948.84;5011950;28;20034;-78
2021/07/04 05:06:24;;;;;;;10.77;9.00;;;;;;;16.40;100.00;95947.69;5012035;28;20030;-79
2021/07/04 05:08:50;;;;;;;11.88;8.60;;;;;;;16.40;100.00;95945.03;5013396;28;20168;-79
2021/07/04 05:11:18;;;;;;;11.13;7.65;;;;;;;16.57;100.00;95941.97;5012894;28;20033;-78
2021/07/04 05:13:44;;;;;;;10.85;8.15;;;;;;;16.67;100.00;95947.69;4993923;28;20049;-79
2021/07/04 05:16:09;;;;;;;9.25;7.30;;;;;;;16.65;100.00;95944.41;5012000;28;20044;-79
2021/07/04 05:18:36;;;;;;;15.02;9.00;;;;;;;16.82;99.86;95944.84;4994811;28;20033;-79
2021/07/04 05:21:03;;;;;;;11.85;7.82;;;;;;;17.00;98.81;95937.09;5004577;28;20034;-79
2021/07/04 05:23:29;;;;;;;10.88;7.88;;;;;;;17.03;97.06;95943.81;5013288;28;20021;-79
2021/07/04 05:25:57;;;;;;;10.90;8.13;;;;;;;17.14;96.60;95940.53;4998623;28;20494;-79
2021/07/04 05:28:24;;;;;;;9.90;7.18;;;;;;;17.18;95.85;95936.44;5015462;28;20032;-79
2021/07/04 05:30:52;;;;;;;8.85;6.70;;;;;;;17.15;95.50;95932.34;5015837;28;20041;-78
2021/07/04 05:33:18;;;;;;;9.80;6.82;;;;;;;17.32;93.94;95924.75;5011392;28;20025;-80
2021/07/04 05:35:43;;;;;;;9.85;6.55;;;;;;;17.49;93.53;95925.09;4998427;28;20504;-79
2021/07/04 05:38:17;;;;;;;10.23;6.35;;;;;;;17.74;91.46;95921.72;5032163;28;20704;-79
2021/07/04 05:40:44;;;;;;;9.07;5.65;;;;;;;17.86;90.70;95920.06;5017201;28;20205;-80
2021/07/04 05:43:10;;;;;;;8.00;5.30;;;;;;;18.27;87.41;95921.47;5010039;28;20029;-79
2021/07/04 05:45:36;;;;;;;7.72;5.25;;;;;;;18.54;85.46;95912.28;5006710;28;20052;-79
2021/07/04 05:48:02;;;;;;;6.32;3.83;;;;;;;19.11;82.32;95914.03;5010549;28;20037;-79
2021/07/04 05:50:28;;;;;;;6.50;3.45;;;;;;;19.26;79.12;95903.84;5011240;28;20209;-80
2021/07/04 05:52:53;;;;;;;6.75;4.25;;;;;;;19.18;79.56;95904.13;5025583;28;20026;-79
2021/07/04 05:55:19;;;;;;;5.70;3.88;;;;;;;19.75;78.01;95902.88;5014657;28;20030;-79
2021/07/04 05:57:45;;;;;;;5.50;3.70;;;;;;;19.43;78.66;95907.53;4997482;28;20029;-79
2021/07/04 06:00:13;;;;;;;5.90;3.63;;;;;;;19.25;79.09;95897.69;5014268;28;20041;-79
2021/07/04 06:02:43;;;;;;;6.65;3.80;;;;;;;19.25;79.40;95895.03;5001761;28;20520;-79
2021/07/04 06:05:13;;;;;;;8.93;4.28;;;;;;;19.16;80.61;95895.53;5016820;28;20065;-80
2021/07/04 06:07:39;;;;;;;5.32;2.70;;;;;;;19.13;77.71;95893.31;5012794;28;20032;-80
2021/07/04 06:10:05;;;;;;;5.03;3.00;;;;;;;19.15;78.84;95897.41;5014557;28;20060;-80
2021/07/04 06:12:31;;;;;;;5.13;2.92;;;;;;;19.30;76.98;95889.84;4994601;28;20033;-79
2021/07/04 06:14:56;;;;;;;4.47;2.72;;;;;;;18.98;77.98;95890.97;4995938;28;20042;-80
2021/07/04 06:17:23;;;;;;;5.15;3.05;;;;;;;19.02;76.65;95889.53;5013960;28;20069;-79
2021/07/04 06:19:49;;;;;;;5.22;2.55;;;;;;;19.01;76.79;95882.56;5004236;28;20408;-79
2021/07/04 06:22:14;;;;;;;3.53;1.92;;;;;;;19.39;74.78;95881.56;5014467;28;20021;-80
2021/07/04 06:24:40;;;;;;;4.50;2.80;;;;;;;19.22;76.21;95878.66;4995926;28;20037;-80
2021/07/04 06:27:06;;;;;;;3.78;2.33;;;;;;;19.19;76.67;95876.44;5013639;28;20022;-79
2021/07/04 06:29:31;;;;;;;3.25;2.20;;;;;;;19.24;75.92;95879.25;5000800;28;20477;-79
2021/07/04 06:31:57;;;;;;;3.05;1.95;;;;;;;19.60;74.86;95878.41;4997800;28;20034;-79
2021/07/04 06:34:23;;;;;;;4.45;2.25;;;;;;;19.77;74.46;95874.09;5012717;28;20092;-79
2021/07/04 06:36:48;;;;;;;3.38;2.00;;;;;;;19.59;74.48;95887.47;5025543;28;20524;-81
2021/07/04 06:39:15;;;;;;;3.55;2.22;;;;;;;20.16;72.66;95881.81;5014346;28;20030;-80
2021/07/04 06:41:41;;;;;;;4.53;2.00;;;;;;;19.89;73.11;95879.50;4996902;28;20133;-80
2021/07/04 06:44:09;;;;;;;4.45;2.33;;;;;;;20.13;72.06;95879.59;5014229;28;20070;-81
2021/07/04 06:46:34;;;;;;;3.33;1.95;;;;;;;20.61;69.84;95873.31;5015121;28;20041;-80
2021/07/04 06:49:00;;;;;;;3.40;1.65;;;;;;;20.14;68.85;95876.66;5032161;28;20037;-80
2021/07/04 06:51:26;;;;;;;3.05;1.63;;;;;;;20.10;70.35;95878.19;5016305;28;20209;-80
2021/07/04 06:53:51;;;;;;;4.03;2.30;;;;;;;19.86;71.89;95873.81;5002684;28;20122;-79
2021/07/04 06:56:17;;;;;;;2.88;1.80;;;;;;;20.04;71.19;95870.25;4998941;28;20045;-79
2021/07/04 06:58:43;;;;;;;2.30;1.60;;;;;;;19.70;71.87;95877.91;5020231;28;20037;-82
2021/07/04 07:01:08;;;;;;;4.50;1.90;;;;;;;19.67;72.66;95873.03;5017684;28;20026;-80
2021/07/04 07:03:35;;;;;;;3.50;2.10;;;;;;;19.33;74.74;95871.78;5034530;28;20041;-80
2021/07/04 07:06:01;;;;;;;3.67;2.10;;;;;;;20.03;72.86;95866.78;5002488;28;20026;-81
2021/07/04 07:08:26;;;;;;;4.03;2.42;;;;;;;20.32;72.03;95872.31;5032781;28;20812;-80
2021/07/04 07:10:52;;;;;;;3.88;2.30;;;;;;;20.41;71.40;95863.72;4997126;28;20443;-78
2021/07/04 07:13:18;;;;;;;4.55;2.50;;;;;;;19.98;71.50;95858.63;4999652;28;20021;-78
2021/07/04 07:15:46;;;;;;;4.43;2.17;;;;;;;19.92;72.41;95865.72;5004376;28;20041;-79
2021/07/04 07:18:12;;;;;;;5.80;2.30;;;;;;;19.81;72.88;95847.78;4999100;28;20022;-78
2021/07/04 07:20:38;;;;;;;4.85;2.33;;;;;;;20.80;70.13;95860.66;5016399;28;20036;-79
2021/07/04 07:23:06;;;;;;;4.72;2.92;;;;;;;20.80;69.74;95853.47;5011966;28;20514;-79
2021/07/04 07:25:39;;;;;;;5.60;2.55;;;;;;;21.16;69.88;95855.06;5013933;28;20034;-80
2021/07/04 07:28:09;;;;;;;4.10;2.58;;;;;;;21.05;71.13;95847.03;5013891;28;20444;-77
2021/07/04 07:30:43;;;;;;;3.92;2.35;;;;;;;22.05;67.43;95843.16;5018308;28;20117;-81
2021/07/04 07:33:12;;;;;;;4.28;2.65;;;;;;;22.56;64.09;95847.50;5031827;28;20029;-79
2021/07/04 07:35:39;;;;;;;6.32;3.08;;;;;;;22.03;66.03;95847.91;5002834;28;20036;-78
2021/07/04 07:38:05;;;;;;;5.78;2.92;;;;;;;21.94;65.92;95857.41;5011952;28;20408;-78
2021/07/04 07:40:34;;;;;;;3.63;2.45;;;;;;;22.28;64.64;95856.44;5000344;28;20029;-79
2021/07/04 07:43:01;;;;;;;4.80;2.40;;;;;;;22.43;64.07;95863.09;5013579;28;20064;-80
2021/07/04 07:45:27;;;;;;;5.47;2.72;;;;;;;22.27;64.56;95859.38;4993627;28;20366;-79
2021/07/04 07:47:59;;;;;;;4.45;2.97;;;;;;;22.56;63.50;95855.53;5014352;28;20508;-80
2021/07/04 07:50:28;;;;;;;4.05;2.33;;;;;;;22.49;63.17;95852.22;4996134;28;20037;-78
2021/07/04 07:52:55;;;;;;;4.75;2.50;;;;;;;22.75;60.76;95850.75;5013876;28;20040;-80
2021/07/04 07:55:20;;;;;;;3.60;2.45;;;;;;;23.14;59.91;95842.75;5017351;28;20108;-81
2021/07/04 07:57:46;;;;;;;2.95;2.10;;;;;;;23.01;59.19;95843.13;5015443;28;20034;-81
2021/07/04 08:00:13;;;;;;;4.50;2.15;;;;;;;22.99;60.05;95840.66;5009264;28;20041;-79
2021/07/04 08:02:44;;;;;;;5.65;2.80;;;;;;;23.53;57.53;95843.50;4994901;28;20064;-81
2021/07/04 08:05:17;;;;;;;5.25;2.55;;;;;;;24.68;54.75;95834.44;4994704;28;20681;-81
2021/07/04 08:07:43;;;;;;;5.60;2.88;;;;;;;24.68;54.80;95831.75;5009893;28;20037;-81
2021/07/04 08:10:10;;;;;;;3.60;2.40;;;;;;;25.57;52.41;95820.16;5005514;28;20513;-82
2021/07/04 08:12:36;;;;;;;5.68;3.05;;;;;;;24.94;52.92;95827.34;5024469;28;20027;-82
2021/07/04 08:15:03;;;;;;;6.10;3.47;;;;;;;25.89;51.44;95811.13;4990314;28;20476;-81
2021/07/04 08:17:29;;;;;;;5.10;3.38;;;;;;;24.73;54.41;95822.91;5001390;28;20034;-81
2021/07/04 08:19:55;;;;;;;5.32;2.92;;;;;;;25.71;50.44;95809.69;5007059;28;20036;-81
2021/07/04 08:22:20;;;;;;;3.60;2.40;;;;;;;26.02;47.16;95810.59;4991011;28;20031;-81
2021/07/04 08:24:47;;;;;;;6.57;3.50;;;;;;;25.08;51.69;95803.47;5010415;28;20033;-79
2021/07/04 08:27:13;;;;;;;8.38;3.20;;;;;;;26.56;47.50;95802.03;5008806;28;20036;-81
2021/07/04 08:29:39;;;;;;;4.05;3.08;;;;;;;25.92;48.23;95790.91;4993349;28;20124;-81
2021/07/04 08:32:05;;;;;;;5.93;3.88;;;;;;;25.08;50.95;95798.94;5002091;28;20092;-81
2021/07/04 08:34:31;;;;;;;4.93;3.40;;;;;;;26.67;48.33;95783.13;4994199;28;20080;-81
2021/07/04 08:36:57;;;;;;;5.68;3.58;;;;;;;26.37;47.71;95786.63;5009661;28;20042;-80
2021/07/04 08:39:22;;;;;;;5.60;3.78;;;;;;;27.03;47.65;95787.38;5009345;28;20595;-79
2021/07/04 08:41:48;;;;;;;4.95;3.55;;;;;;;27.71;44.19;95769.81;5010246;28;20037;-80
2021/07/04 08:44:14;;;;;;;6.43;4.40;;;;;;;26.38;47.85;95780.16;4992438;28;20057;-81
2021/07/04 08:46:41;;;;;;;6.47;4.05;;;;;;;25.26;50.13;95781.53;5008137;28;20037;-81
2021/07/04 08:49:08;;;;;;;5.43;3.85;;;;;;;25.90;50.34;95780.41;5010456;28;20251;-81
2021/07/04 08:51:34;;;;;;;6.78;4.25;;;;;;;27.19;46.64;95776.53;5010997;28;20049;-81
2021/07/04 08:53:59;;;;;;;5.22;3.33;;;;;;;26.01;46.69;95775.81;5010216;28;20448;-80
2021/07/04 08:56:25;;;;;;;4.47;3.17;;;;;;;24.88;50.33;95782.66;4993836;28;20036;-80
2021/07/04 08:58:51;;;;;;;5.45;3.95;;;;;;;27.51;43.95;95773.44;4993432;28;20029;-81
2021/07/04 09:01:21;;;;;;;4.80;3.40;;;;;;;24.95;48.54;95785.94;5013961;28;20044;-81
2021/07/04 09:04:06;;;;;;;5.63;3.75;;;;;;;24.40;50.05;95795.22;5010512;28;20464;-81
2021/07/04 09:06:36;;;;;;;7.20;3.58;;;;;;;25.35;47.89;95789.91;5007680;28;20033;-81
2021/07/04 09:09:17;;;;;;;4.82;3.47;;;;;;;25.27;49.82;95787.72;5006929;28;20751;-81
2021/07/04 09:12:07;;;;;;;5.47;3.65;;;;;;;25.47;48.43;95785.13;5007854;28;20081;-80
2021/07/04 09:14:41;;;;;;;4.45;3.13;;;;;;;25.55;48.22;95784.63;5013045;28;20072;-81
2021/07/04 09:17:10;;;;;;;5.93;4.60;;;;;;;25.26;47.96;95788.81;5008943;28;20129;-81
2021/07/04 09:19:37;;;;;;;7.00;4.10;;;;;;;24.64;50.99;95793.81;5014562;28;20022;-82
2021/07/04 09:22:10;;;;;;;6.43;3.85;;;;;;;23.79;53.91;95794.69;4998763;28;20046;-81
2021/07/04 09:24:42;;;;;;;6.35;4.15;;;;;;;24.22;54.36;95791.06;5015060;28;20029;-83
2021/07/04 09:27:12;;;;;;;5.07;3.58;;;;;;;24.15;52.03;95793.97;5029368;28;20045;-83
2021/07/04 09:29:44;;;;;;;4.70;3.03;;;;;;;23.62;52.90;95786.72;5001207;28;20663;-82
2021/07/04 09:32:20;;;;;;;5.45;3.65;;;;;;;23.74;53.11;95788.22;5008420;28;20034;-81
2021/07/04 09:35:10;;;;;;;4.30;3.33;;;;;;;23.80;52.95;95780.19;5011785;28;20041;-82
2021/07/04 09:37:45;;;;;;;5.72;3.88;;;;;;;23.91;52.45;95781.91;5017460;28;20034;-82
2021/07/04 09:40:21;;;;;;;4.90;3.13;;;;;;;24.07;52.53;95788.22;5010563;28;20456;-82
2021/07/04 09:43:14;;;;;;;5.35;3.00;;;;;;;23.96;52.63;95784.66;5013189;28;20033;-81
2021/07/04 09:45:46;;;;;;;7.70;5.53;;;;;;;24.10;53.04;95782.34;4996339;28;20048;-80
2021/07/04 09:48:21;;;;;;;4.10;2.92;;;;;;;23.26;54.81;95780.94;5001612;28;20034;-80
2021/07/04 09:50:50;;;;;;;5.50;3.15;;;;;;;23.30;55.26;95777.47;5030102;28;20113;-81
2021/07/04 09:53:17;;;;;;;4.53;3.13;;;;;;;23.79;53.34;95781.28;5013157;28;20028;-81
2021/07/04 09:55:43;;;;;;;4.85;3.53;;;;;;;23.95;54.42;95780.34;4995848;28;20038;-81
2021/07/04 09:58:11;;;;;;;5.28;3.65;;;;;;;23.76;54.68;95782.59;5029086;28;20544;-82
2021/07/04 10:00:47;;;;;;;5.68;3.53;;;;;;;23.65;55.32;95778.97;5016317;28;20040;-79
2021/07/04 10:03:21;;;;;;;4.95;3.50;;;;;;;23.57;54.06;95776.72;5026842;28;20038;-81
2021/07/04 10:05:50;;;;;;;6.72;3.95;;;;;;;23.32;56.66;95773.75;4997309;28;20424;-80
2021/07/04 10:08:27;;;;;;;5.90;4.10;;;;;;;23.00;56.40;95767.22;4997192;28;20075;-81
2021/07/04 10:11:05;;;;;;;5.88;4.13;;;;;;;22.34;58.75;95775.09;5012114;28;20037;-79
2021/07/04 10:13:31;;;;;;;5.30;4.20;;;;;;;22.29;59.96;95758.94;4996282;28;20022;-81
2021/07/04 10:15:58;;;;;;;6.07;4.22;;;;;;;22.20;63.76;95756.91;4994327;28;20499;-81
2021/07/04 10:18:24;;;;;;;6.00;3.92;;;;;;;22.09;61.48;95743.34;5012970;28;20034;-80
2021/07/04 10:20:52;;;;;;;6.10;4.38;;;;;;;22.40;58.53;95737.66;5011358;28;20076;-82
2021/07/04 10:23:20;;;;;;;5.57;3.97;;;;;;;22.40;59.95;95737.66;5029279;28;20038;-81
2021/07/04 10:25:47;;;;;;;7.18;4.05;;;;;;;22.97;57.71;95721.28;4997551;28;20030;-81
2021/07/04 10:28:18;;;;;;;7.07;4.30;;;;;;;23.33;56.12;95721.72;5005155;28;20030;-80
2021/07/04 10:30:48;;;;;;;5.60;3.85;;;;;;;23.57;56.74;95714.97;5009778;28;20400;-81
2021/07/04 10:33:19;;;;;;;6.10;4.03;;;;;;;24.11;57.78;95706.91;4997156;28;20041;-81
2021/07/04 10:36:07;;;;;;;8.05;4.20;;;;;;;24.70;57.76;95695.19;5013511;28;20045;-81
2021/07/04 10:38:58;;;;;;;5.93;3.85;;;;;;;24.04;54.50;95698.22;5008010;28;20030;-81
2021/07/04 10:41:28;;;;;;;6.32;4.20;;;;;;;24.38;52.17;95703.28;5009026;28;20065;-81
2021/07/04 10:44:05;;;;;;;5.90;3.53;;;;;;;24.51;50.76;95694.78;5014056;28;20034;-81
2021/07/04 10:46:41;;;;;;;6.22;4.28;;;;;;;24.20;53.10;95694.59;5011327;28;20026;-82
2021/07/04 10:49:17;;;;;;;9.07;4.25;;;;;;;26.78;47.53;95683.00;5013473;28;21192;-81
2021/07/04 10:51:53;;;;;;;7.32;4.68;;;;;;;27.60;44.13;95684.50;5039080;28;20045;-79
2021/07/04 10:54:46;;;;;;;6.68;4.20;;;;;;;26.55;48.31;95679.03;5001580;28;20085;-82
2021/07/04 10:57:15;;;;;;;5.20;4.00;;;;;;;27.30;45.16;95677.41;5025559;28;20053;-80
2021/07/04 11:00:05;;;;;;;6.07;4.35;;;;;;;25.56;49.39;95683.91;5008253;28;20030;-82
2021/07/04 11:02:59;;;;;;;5.97;4.63;;;;;;;24.98;49.20;95675.09;5006067;28;20092;-80
2021/07/04 11:05:38;;;;;;;4.90;3.92;;;;;;;24.48;51.06;95683.75;5012796;28;20292;-81
2021/07/04 11:08:20;;;;;;;6.28;4.40;;;;;;;25.17;51.56;95673.59;5001960;28;20506;-81
2021/07/04 11:10:49;;;;;;;5.65;4.15;;;;;;;25.32;49.65;95670.16;4993388;28;20034;-79
2021/07/04 11:13:14;;;;;;;6.38;4.80;;;;;;;24.66;50.95;95677.97;5028668;28;20029;-81
2021/07/04 11:15:41;;;;;;;5.90;4.10;;;;;;;25.71;50.01;95671.53;5005085;28;20583;-82
2021/07/04 11:18:08;;;;;;;7.53;5.60;;;;;;;26.31;48.98;95672.59;4995487;28;20108;-81
2021/07/04 11:20:41;;;;;;;7.07;4.55;;;;;;;25.99;48.12;95671.03;4996610;28;20090;-82
2021/07/04 11:23:16;;;;;;;7.72;4.93;;;;;;;26.48;47.58;95661.53;5012600;28;20036;-79
2021/07/04 11:25:52;;;;;;;5.85;4.30;;;;;;;25.49;47.73;95666.41;5007447;28;20508;-81
2021/07/04 11:28:20;;;;;;;6.68;4.50;;;;;;;24.87;49.61;95660.03;5025060;28;20026;-81
2021/07/04 11:30:59;;;;;;;6.53;4.20;;;;;;;25.49;49.86;95656.44;5005384;28;20108;-81
2021/07/04 11:36:15;;;;;;;4.97;3.83;;;;;;;25.17;51.28;95649.38;5006877;28;20110;-80
2021/07/04 11:38:58;;;;;;;5.43;3.70;;;;;;;25.33;50.59;95639.47;4996024;28;20070;-81